AirNav   TITAN Aviation Fuels
 
 740 users online  

75NE Heaton Airport
Fort Calhoun, Nebraska, USA

GOING TO FORT CALHOUN?


FAA INFORMATION EFFECTIVE 03 NOVEMBER 2022

Location

FAA Identifier: 75NE
Lat/Long: 41-26-44.9800N 095-57-24.0440W
41-26.749667N 095-57.400733W
41.4458278,-95.9566789
(estimated)
Elevation: 1000 ft. / 305 m (estimated)
Variation: 06E (1980)
From city: 4 miles E of FORT CALHOUN, NE
Time zone: UTC -6 (UTC -5 during Daylight Saving Time)
Zip code: 68112

Airport Operations

Airport use: Private use. Permission required prior to landing
Activation date: 11/1986
Control tower: no
ARTCC: MINNEAPOLIS CENTER
FSS: COLUMBUS FLIGHT SERVICE STATION
Attendance: UNATNDD
Wind indicator: yes
Segmented circle: no

Airport Communications

WX AWOS-3 at BTA (7 nm W): 120.225 (402-426-0448)
WX ASOS at OMA (9 nm S): PHONE 402-271-7515
WX AWOS-3 at CBF (14 nm SE): 126.575 (712-323-1542)
WX AWOS-3 at MLE (17 nm SW): 118.25 (402-895-6778)

Nearby radio navigation aids

VOR radial/distance  VOR name  Freq  Var
OVRr321/19.4OMAHA VORTAC116.3008E
SCBr102/31.7SCRIBNER VOR/DME111.0006E

 
NDB name  Hdg/Dist  Freq  Var  ID
PLATTSMOUTH351/30.232905EPMV .--. -- ...-
WAHOO061/31.540006EAHQ .- .... --.-

Airport Services

Runway Information

Runway 17/35

Dimensions: 2500 x 66 ft. / 762 x 20 m
Surface: turf
RUNWAY 17  RUNWAY 35
Traffic pattern: leftleft
Obstructions: 30 ft. pline, 100 ft. from runwaynone

Airport Ownership and Management from official FAA records

Ownership: Privately-owned
Owner: ALFRED HEATON
RT 1, BOX 155
FORT CALHOUN, NE 68023
Phone 402-468-5813
Manager: ALFRED HEATON
RT 1, BOX 155
FORT CALHOUN, NE 68023
Phone 402-468-5813
OTHER CONTACT KENT HENTON 2705 CO RD. 34 FORT CALHOUN, NE 68023 402-533-4773

Airport Operational Statistics

Aircraft based on the field: 1
Single engine airplanes: 1
    

Additional Remarks

FOR CD CTC OMAHA APCH AT 402-682-4395.

Instrument Procedures

There are no published instrument procedures at 75NE.

Some nearby airports with instrument procedures:

KBTA - Blair Executive Airport (7 nm W)
KOMA - Eppley Airfield (9 nm S)
KCBF - Council Bluffs Municipal Airport (14 nm SE)
KMLE - Millard Airport (17 nm SW)
KOFF - Offutt Air Force Base (20 nm S)
 
Loc | Ops | Rwys | IFR | FBO | Links
Com | Nav | Svcs | Stats | Notes
Area around 75NE (Heaton Airport)
 
Road maps at: MapQuest Bing Google
 
Aerial photo
No photo
 
Sectional chart

 
Airport distance calculator
Flying to Heaton Airport? Find the distance to fly.

From to 75NE

Sunrise and sunset
Times for 30-Nov-2022
 Local
(UTC-6)
 Zulu
(UTC)
Morning civil twilight07:0013:00
Sunrise07:3113:31
Sunset16:5422:54
Evening civil twilight17:2523:25

Current date and time
Zulu (UTC)  01-Dec-2022 04:53:42
Local (UTC-6)  30-Nov-2022 22:53:42
 
METAR
KBTA 
7nm W 
010435Z AUTO 14004KT 10SM CLR M08/M12 A3033 RMK AO2 T10771119
KOMA 
8nm S 
010352Z 16005KT 10SM CLR M08/M11 A3038 RMK AO2 SLP304 T10781111
KCBF 
14nm SE 
010435Z AUTO 15005KT 10SM CLR M08/M13 A3034 RMK AO2
KMLE 
17nm SW 
010435Z AUTO 13003KT 10SM CLR M08/M11 A3037 RMK AO2 T10821112
KOFF 
20nm S 
010355Z 00000KT 10SM CLR M08/M12 A3039 RMK AO2A SLP314 T10791119 PWINO PNO FZRANO TSNO $
TAF
KOMA 
8nm S 
302102Z 3021/0118 26011KT P6SM SKC FM010100 15007KT P6SM SKC FM011000 16012G20KT P6SM SKC WS013/19055KT FM011500 18020G35KT P6SM SKC WS013/19055KT
KOFF 
20nm S 
010200Z 0102/0208 VRB06KT 9999 FEW250 QNH3034INS BECMG 0107/0108 16009KT 9999 FEW250 WS020/19045KT QNH3020INS BECMG 0113/0114 16015G25KT 9999 SKC WS020/19060KT 520003 QNH3015INS BECMG 0115/0116 19025G35KT 9999 SKC 520003 QNH3012INS BECMG 0121/0122 18012G18KT 9999 SKC WS020/20045KT QNH2976INS TX08/0120Z TNM08/0105Z
NOTAMs
Click for the latest NOTAMs
NOTAMs are issued by the DoD/FAA and will open in a separate window not controlled by AirNav.

 

 
 

Would you like to see your business listed on this page?

 If your business provides an interesting product or service to pilots, flight crews, aircraft, or users of the Heaton Airport, you should consider listing it here.  To start the listing process, click on the button below
 
Add a business
 

Other Pages about Heaton Airport

Update a link
 
Copyright © AirNav, LLC. All rights reserved. Privacy Policy  Contact